Track Покровская Агния

Time Latitude Longitude Accuracy (66% radius in meters) Altitude (meters) Speed (km/hour) Bearing (degrees) Battery (%) GPS flag
10:04:50 55.737867 37.298988 5 177 0 200.89241027832 57 1 delete
10:04:38 55.737864 37.298996 10 179 0 230.6157989502 57 1 delete
10:04:27 55.737856 37.299008 5 181 0 6.4157776832581 57 1 delete
10:04:15 55.737856 37.299008 5 176 0 6.4157776832581 57 1 delete
10:04:02 55.737857 37.299006 5 176 0 6.4157776832581 57 1 delete
10:03:51 55.737856 37.299005 5 175 0 6.4157776832581 57 1 delete
10:03:39 55.737856 37.299005 5 171 0 6.4157776832581 57 1 delete
10:03:27 55.737856 37.299005 5 170 0 6.4157776832581 57 1 delete
10:03:15 55.737861 37.298995 10 173 0 212.74365234375 57 1 delete
10:03:03 55.737861 37.298995 5 175 0 212.74365234375 57 1 delete
10:02:52 55.737861 37.298995 5 170 0 212.74365234375 57 1 delete
10:02:40 55.737863 37.298992 5 182 0 212.74365234375 57 1 delete
10:02:28 55.737864 37.298991 5 173 0 212.74365234375 57 1 delete
10:02:17 55.737864 37.298991 5 177 0 212.74365234375 57 1 delete
10:02:05 55.737864 37.298991 5 183 0 212.74365234375 57 1 delete
10:01:53 55.737864 37.298991 10 185 0 212.74365234375 57 1 delete
10:01:42 55.737864 37.298991 15 186 0 212.74365234375 57 1 delete
10:01:30 55.737864 37.298991 5 178 0 212.74365234375 57 1 delete
10:01:18 55.737864 37.298991 10 175 0 212.74365234375 57 1 delete
10:01:07 55.737864 37.298991 5 175 0 212.74365234375 57 1 delete
10:00:55 55.737864 37.298996 5 178 0 212.74365234375 57 1 delete
10:00:43 55.737864 37.298996 5 179 0 212.74365234375 57 1 delete
10:00:30 55.737864 37.298996 10 176 0 212.74365234375 57 1 delete
10:00:19 55.737864 37.298995 10 172 0 212.74365234375 57 1 delete
10:00:06 55.737864 37.298995 5 171 0 212.74365234375 57 1 delete
09:59:55 55.737862 37.298997 5 176 0 212.74365234375 57 1 delete
09:59:43 55.737861 37.299000 10 178 0 212.74365234375 57 1 delete
09:59:31 55.737864 37.299002 10 168 0 182.63607788086 57 1 delete
09:59:20 55.737864 37.299001 5 177 0 182.63607788086 57 1 delete
09:59:08 55.737860 37.299006 5 178 0 182.63607788086 57 1 delete
09:58:56 55.737858 37.299008 5 179 0 182.63607788086 57 1 delete
09:58:44 55.737858 37.299008 10 180 0 182.63607788086 57 1 delete
09:58:33 55.737858 37.299008 10 178 0 182.63607788086 57 1 delete
09:58:21 55.737858 37.299008 5 172 0 182.63607788086 57 1 delete
09:58:09 55.737862 37.299005 10 168 0 353.70223999023 57 1 delete
09:57:58 55.737861 37.299004 5 170 0 353.70223999023 57 1 delete
09:57:46 55.737861 37.299004 5 172 0 353.70223999023 57 1 delete
09:57:34 55.737861 37.299004 5 175 0 353.70223999023 57 1 delete
09:57:22 55.737850 37.299011 5 170 0 157.52993774414 57 1 delete
09:57:10 55.737850 37.299011 5 163 0 157.52993774414 57 1 delete
09:56:57 55.737845 37.299010 10 172 0 157.52993774414 57 1 delete
09:56:46 55.737842 37.299011 5 168 0 157.52993774414 57 1 delete
09:56:34 55.737830 37.299019 5 172 0 157.52993774414 57 1 delete
09:56:22 55.737826 37.299024 5 174 0 138.2897644043 57 1 delete
09:56:11 55.737827 37.299019 5 168 0 138.2897644043 57 1 delete
09:56:00 55.737845 37.298989 10 170 0 325.81048583984 57 1 delete
09:55:59 55.737849 37.298984 5 170 0 325.81048583984 57 1 delete
09:55:47 55.737859 37.298993 5 172 0 99.061721801758 57 1 delete
09:55:35 55.737863 37.299005 5 180 0 21.037143707275 57 1 delete
09:55:23 55.737852 37.299035 5 176 0 337.68276977539 57 1 delete